메인 페이지
METAR-TAF:

METAR-TAF

공항 :

말뫼, 스웨덴

위도: 55-33N, 경도: 013-22E, 고도: 106m

현재 날씨관측

예보는 33분 전, 04:50시(UTC)에 발표되었습니다.
동남동3kt
온도 17°C
습도 82%
기압 1010 hPa
시정 10km 이상
1500m 미만 상공 구름 및 적란운 없음

METAR: ESMS 210450Z 11003KT CAVOK 17/14 Q1010

시각: 07:23 (05:23 UTC)

예보

예보는 3 시간 14분 전, 02:09시(UTC)에 발표되었습니다.
예보 대상 시간: 21일 03시부터 22일 03시까지 (UTC)
여러 방향의 바람 3kt
시정 10km 이상
1500m 미만 상공 구름 및 적란운 없음
전환 중
21일 06시부터 21일 09시까지 (UTC)
남동10kt

TAF: ESMS 210209Z 2103/2203 VRB03KT CAVOK BECMG 2106/2109 13010KT

4,000개 이상의 공항 관측 자료 및 예보 (METAR 및 TAF 보고).

지도상에서 검색 가능한 기상관측소가 노란 점과 빨간 점으로 표시되어 있습니다.

기상관측소 명을 보려면 표시 위로 마우스를 이동하세요.

날씨 관측과 예보를 보려면 클릭하세요.

지도 변경 : 확대하려면 엑스 표시가 있는 녹색 버튼, 축소하려면 빼기 표시가 있는 녹색 버튼, 다음 페이지의 지도를 보려면 녹색 화살표를 클릭하세요.


METAR-TAF: